createdAt,value
2017-11-06T20:37:35.612Z,82.24
2017-11-06T20:38:35.621Z,82.15
2017-11-06T20:39:35.966Z,82.81
2017-11-06T20:40:35.637Z,82.09
2017-11-06T20:41:35.988Z,82.15
2017-11-06T20:42:35.658Z,82.24
2017-11-06T20:43:36.008Z,82.15
2017-11-06T20:44:36.012Z,82.05
2017-11-06T20:45:35.690Z,82.34
2017-11-06T20:46:35.700Z,82.34
2017-11-06T20:47:36.059Z,82.15
2017-11-06T20:48:35.723Z,81.96
2017-11-06T20:49:35.736Z,81.86
2017-11-06T20:50:36.088Z,82.53
2017-11-06T20:51:36.097Z,82.15
2017-11-06T20:52:36.109Z,82.15
2017-11-06T20:53:36.119Z,81.86
2017-11-06T20:54:36.137Z,82.05
2017-11-06T20:55:35.809Z,82.24
2017-11-06T20:56:35.824Z,81.77
2017-11-06T20:57:36.080Z,82.53
2017-11-06T20:58:35.853Z,81.58
2017-11-06T20:59:36.196Z,81.96
2017-11-06T21:00:36.212Z,81.77
2017-11-06T21:01:36.226Z,81.58
2017-11-06T21:02:35.900Z,81.86
2017-11-06T21:03:35.915Z,81.77
2017-11-06T21:04:35.927Z,81.77
2017-11-06T21:05:36.278Z,81.86
2017-11-06T21:06:35.955Z,81.77
2017-11-06T21:07:36.312Z,81.77
2017-11-06T21:08:36.324Z,81.77
2017-11-06T21:09:36.336Z,81.86
2017-11-06T21:10:36.344Z,81.86
2017-11-06T21:11:36.361Z,81.77
2017-11-06T21:12:36.381Z,81.77
2017-11-06T21:13:36.052Z,81.77
2017-11-06T21:14:36.068Z,81.77
2017-11-06T21:15:36.442Z,81.96
2017-11-06T21:16:36.429Z,81.96
2017-11-06T21:17:36.448Z,81.67
2017-11-06T21:18:36.458Z,81.58
2017-11-06T21:19:36.482Z,81.67
2017-11-06T21:20:36.496Z,81.96
2017-11-06T21:21:36.169Z,81.77
2017-11-06T21:22:36.518Z,81.96
2017-11-06T21:23:36.196Z,81.86
2017-11-06T21:24:36.547Z,81.77
2017-11-06T21:25:36.225Z,82.05
2017-11-06T21:26:36.575Z,82.24
2017-11-06T21:27:36.659Z,82.05
2017-11-06T21:28:36.605Z,81.96
2017-11-06T21:29:36.621Z,81.86
2017-11-06T21:30:36.296Z,81.77
2017-11-06T21:31:36.312Z,81.77
2017-11-06T21:32:36.671Z,81.58
2017-11-06T21:33:36.344Z,81.48
2017-11-06T21:34:36.355Z,81.96
2017-11-06T21:35:36.708Z,81.48
2017-11-06T21:36:36.729Z,81.58
2017-11-06T21:37:36.402Z,81.58
2017-11-06T21:38:36.753Z,81.86
2017-11-06T21:39:36.771Z,82.05
2017-11-06T21:40:36.782Z,81.48
2017-11-06T21:41:36.796Z,81.77
2017-11-06T21:42:36.474Z,82.15
2017-11-06T21:43:36.826Z,81.77
2017-11-06T21:44:36.841Z,82.05
2017-11-06T21:45:36.892Z,81.96
2017-11-06T21:46:36.871Z,81.77
2017-11-06T21:47:36.943Z,81.86
2017-11-06T21:48:36.566Z,81.77
2017-11-06T21:49:36.915Z,81.77
2017-11-06T21:50:36.932Z,81.58
2017-11-06T21:51:36.615Z,81.77
2017-11-06T21:52:36.958Z,81.96
2017-11-06T21:53:36.975Z,81.86
2017-11-06T21:54:36.997Z,81.58
2017-11-06T21:55:36.673Z,81.67
2017-11-06T21:56:37.021Z,81.77
2017-11-06T21:57:37.037Z,81.58
2017-11-06T21:58:36.719Z,81.86
2017-11-06T21:59:36.732Z,81.77
2017-11-06T22:00:36.745Z,81.58
2017-11-06T22:01:37.097Z,81.77
2017-11-06T22:02:36.774Z,81.86
2017-11-06T22:03:36.789Z,81.96
2017-11-06T22:04:37.142Z,81.77
2017-11-06T22:05:37.158Z,82.05
2017-11-06T22:06:36.837Z,81.48
2017-11-06T22:07:37.187Z,81.48
2017-11-06T22:08:37.203Z,81.58
2017-11-06T22:09:36.883Z,81.48
2017-11-06T22:10:37.232Z,81.58
2017-11-06T22:11:37.269Z,81.58
2017-11-06T22:12:37.262Z,82.05
2017-11-06T22:13:37.282Z,81.67
2017-11-06T22:14:37.293Z,81.58
2017-11-06T22:15:36.975Z,81.77
2017-11-06T22:16:37.326Z,81.86
2017-11-06T22:17:37.006Z,81.77
2017-11-06T22:18:37.357Z,81.77
2017-11-06T22:19:37.374Z,81.77
2017-11-06T22:20:37.051Z,81.86
2017-11-06T22:21:37.399Z,81.86
2017-11-06T22:22:37.415Z,81.86
2017-11-06T22:23:37.431Z,82.15
2017-11-06T22:24:37.445Z,81.67
2017-11-06T22:25:37.471Z,81.86
2017-11-06T22:26:37.480Z,81.77
2017-11-06T22:27:37.493Z,81.58
2017-11-06T22:28:37.172Z,81.77
2017-11-06T22:29:37.522Z,81.86
2017-11-06T22:30:37.202Z,81.86
2017-11-06T22:31:37.554Z,81.86
2017-11-06T22:32:37.569Z,81.96
2017-11-06T22:33:37.583Z,81.86
2017-11-06T22:34:37.596Z,81.86
2017-11-06T22:35:37.277Z,81.58
2017-11-06T22:36:37.627Z,81.58
2017-11-06T22:37:37.308Z,81.58
2017-11-06T22:38:37.660Z,82.62
2017-11-06T22:39:37.675Z,81.58
2017-11-06T22:40:37.686Z,82.24
2017-11-06T22:41:37.706Z,82.62
2017-11-06T22:42:37.384Z,82.34
2017-11-06T22:43:37.736Z,82.53
2017-11-06T22:44:37.749Z,82.62
2017-11-06T22:45:37.767Z,82.43
2017-11-06T22:46:37.448Z,82.43
2017-11-06T22:47:37.798Z,82.24
2017-11-06T22:48:37.475Z,82.24
2017-11-06T22:49:37.490Z,82.05
2017-11-06T22:50:37.842Z,81.96
2017-11-06T22:51:37.858Z,82.05
2017-11-06T22:52:37.881Z,82.34
2017-11-06T22:53:37.908Z,82.24
2017-11-06T22:54:37.565Z,82.43
2017-11-06T22:55:37.917Z,82.24
2017-11-06T22:56:37.931Z,82.05
2017-11-06T22:57:37.613Z,82.24
2017-11-06T22:58:37.626Z,82.24
2017-11-06T22:59:37.982Z,82.15
2017-11-06T23:00:37.657Z,82.24
2017-11-06T23:01:37.673Z,81.96
2017-11-06T23:02:37.688Z,82.15
2017-11-06T23:03:38.050Z,82.05
2017-11-06T23:04:38.056Z,82.05
2017-11-06T23:05:37.733Z,82.53
2017-11-06T23:06:37.750Z,82.62
2017-11-06T23:07:38.100Z,82.62
2017-11-06T23:08:38.121Z,82.62
2017-11-06T23:09:37.795Z,82.53
2017-11-06T23:10:37.810Z,82.53
2017-11-06T23:11:38.165Z,82.62
2017-11-06T23:12:38.177Z,82.62
2017-11-06T23:13:37.856Z,82.53
2017-11-06T23:14:38.205Z,82.53
2017-11-06T23:15:38.225Z,82.43
2017-11-06T23:16:38.237Z,82.62
2017-11-06T23:17:38.253Z,82.15
2017-11-06T23:18:38.279Z,82.09
2017-11-06T23:19:38.284Z,82.24
2017-11-06T23:20:37.962Z,82.05
2017-11-06T23:21:38.317Z,82.05
2017-11-06T23:22:38.331Z,82.05
2017-11-06T23:23:38.009Z,82.24
2017-11-06T23:24:38.023Z,82.24
2017-11-06T23:25:38.377Z,82.81
2017-11-06T23:26:38.389Z,82.86
2017-11-06T23:27:38.404Z,82.48
2017-11-06T23:28:38.424Z,82.24
2017-11-06T23:29:38.435Z,82.28
2017-11-06T23:30:38.116Z,82.28
2017-11-06T23:31:38.466Z,82.09
2017-11-06T23:32:38.482Z,82.38
2017-11-06T23:33:38.161Z,82.09
2017-11-06T23:34:38.178Z,82.38
2017-11-06T23:35:38.531Z,82.28
2017-11-06T23:36:38.549Z,82.09
2017-11-06T23:37:38.558Z,82.19
2017-11-06T23:38:38.572Z,82.19
2017-11-06T23:39:38.253Z,82.09
2017-11-06T23:40:38.608Z,82.28
2017-11-06T23:41:38.620Z,82.19
2017-11-06T23:42:38.633Z,82.19
2017-11-06T23:43:38.671Z,82.19
2017-11-06T23:44:38.669Z,82.19
2017-11-06T23:45:38.681Z,82.86
2017-11-06T23:46:38.763Z,82.28
2017-11-06T23:47:38.718Z,82.38
2017-11-06T23:48:38.748Z,83.04
2017-11-06T23:49:38.745Z,82.38
2017-11-06T23:50:38.422Z,82.38
2017-11-06T23:51:38.779Z,82.28
2017-11-06T23:52:38.791Z,82.48
2017-11-06T23:53:38.809Z,82.38
2017-11-06T23:54:38.822Z,82.48
2017-11-06T23:55:38.501Z,82.67
2017-11-06T23:56:38.518Z,82.67
2017-11-06T23:57:38.866Z,82.76
2017-11-06T23:58:38.896Z,82.48
2017-11-06T23:59:38.896Z,82.76
